sensor_id;sensor_type;location;lat;lon;timestamp;temperature;humidity
18506;DHT22;9382;53.242;10.438;2022-08-03T00:01:36;21.70;99.90
18506;DHT22;9382;53.242;10.438;2022-08-03T00:04:04;21.70;99.90
18506;DHT22;9382;53.242;10.438;2022-08-03T00:06:31;21.70;99.90
18506;DHT22;9382;53.242;10.438;2022-08-03T00:08:59;21.70;99.90
18506;DHT22;9382;53.242;10.438;2022-08-03T00:11:26;21.70;99.90
18506;DHT22;9382;53.242;10.438;2022-08-03T00:13:53;21.70;99.90
18506;DHT22;9382;53.242;10.438;2022-08-03T00:16:19;21.70;99.90
18506;DHT22;9382;53.242;10.438;2022-08-03T00:18:46;21.70;99.90
18506;DHT22;9382;53.242;10.438;2022-08-03T00:21:13;21.60;99.90
18506;DHT22;9382;53.242;10.438;2022-08-03T00:23:40;21.70;99.90
18506;DHT22;9382;53.242;10.438;2022-08-03T00:26:08;21.60;99.90
18506;DHT22;9382;53.242;10.438;2022-08-03T00:28:34;21.70;99.90
18506;DHT22;9382;53.242;10.438;2022-08-03T00:31:01;21.60;99.90
18506;DHT22;9382;53.242;10.438;2022-08-03T00:33:28;21.60;99.90
18506;DHT22;9382;53.242;10.438;2022-08-03T00:35:55;21.60;99.90
18506;DHT22;9382;53.242;10.438;2022-08-03T00:38:21;21.50;99.90
18506;DHT22;9382;53.242;10.438;2022-08-03T00:40:48;21.50;99.90
18506;DHT22;9382;53.242;10.438;2022-08-03T00:43:16;21.40;99.90
18506;DHT22;9382;53.242;10.438;2022-08-03T00:45:43;21.40;99.90
18506;DHT22;9382;53.242;10.438;2022-08-03T00:48:10;21.30;99.90
18506;DHT22;9382;53.242;10.438;2022-08-03T00:50:40;21.30;99.90
18506;DHT22;9382;53.242;10.438;2022-08-03T00:53:09;21.20;99.90
18506;DHT22;9382;53.242;10.438;2022-08-03T00:55:37;21.20;99.90
18506;DHT22;9382;53.242;10.438;2022-08-03T00:58:04;21.10;99.90
18506;DHT22;9382;53.242;10.438;2022-08-03T01:00:34;21.00;99.90
18506;DHT22;9382;53.242;10.438;2022-08-03T01:03:03;20.90;99.90
18506;DHT22;9382;53.242;10.438;2022-08-03T01:05:35;20.80;99.90
18506;DHT22;9382;53.242;10.438;2022-08-03T01:08:07;20.70;99.90
18506;DHT22;9382;53.242;10.438;2022-08-03T01:10:46;20.70;99.90
18506;DHT22;9382;53.242;10.438;2022-08-03T01:13:21;20.60;99.90
18506;DHT22;9382;53.242;10.438;2022-08-03T01:15:59;20.50;99.90
18506;DHT22;9382;53.242;10.438;2022-08-03T01:18:34;20.40;99.90
18506;DHT22;9382;53.242;10.438;2022-08-03T01:21:07;20.40;99.90
18506;DHT22;9382;53.242;10.438;2022-08-03T01:23:57;20.30;99.90
18506;DHT22;9382;53.242;10.438;2022-08-03T01:26:41;20.20;99.90
18506;DHT22;9382;53.242;10.438;2022-08-03T01:29:48;20.10;99.90
18506;DHT22;9382;53.242;10.438;2022-08-03T01:32:19;20.10;99.90
18506;DHT22;9382;53.242;10.438;2022-08-03T01:34:51;20.00;99.90
18506;DHT22;9382;53.242;10.438;2022-08-03T01:37:25;20.00;99.90
18506;DHT22;9382;53.242;10.438;2022-08-03T01:39:54;20.00;99.90
18506;DHT22;9382;53.242;10.438;2022-08-03T01:42:24;19.90;99.90
18506;DHT22;9382;53.242;10.438;2022-08-03T01:44:54;19.80;99.90
18506;DHT22;9382;53.242;10.438;2022-08-03T01:47:23;19.70;99.90
18506;DHT22;9382;53.242;10.438;2022-08-03T01:49:52;19.70;99.90
18506;DHT22;9382;53.242;10.438;2022-08-03T01:52:19;19.70;99.90
18506;DHT22;9382;53.242;10.438;2022-08-03T01:54:49;19.60;99.90
18506;DHT22;9382;53.242;10.438;2022-08-03T01:57:18;19.60;99.90
18506;DHT22;9382;53.242;10.438;2022-08-03T01:59:47;19.50;99.90
18506;DHT22;9382;53.242;10.438;2022-08-03T02:02:16;19.50;99.90
18506;DHT22;9382;53.242;10.438;2022-08-03T02:04:44;19.40;99.90
18506;DHT22;9382;53.242;10.438;2022-08-03T02:07:13;19.40;99.90
18506;DHT22;9382;53.242;10.438;2022-08-03T02:09:43;19.30;99.90
18506;DHT22;9382;53.242;10.438;2022-08-03T02:12:11;19.30;99.90
18506;DHT22;9382;53.242;10.438;2022-08-03T02:14:40;19.20;99.90
18506;DHT22;9382;53.242;10.438;2022-08-03T02:17:07;19.20;99.90
18506;DHT22;9382;53.242;10.438;2022-08-03T02:19:37;19.20;99.90
18506;DHT22;9382;53.242;10.438;2022-08-03T02:22:05;19.20;99.90
18506;DHT22;9382;53.242;10.438;2022-08-03T02:24:34;19.20;99.90
18506;DHT22;9382;53.242;10.438;2022-08-03T02:27:05;19.10;99.90
18506;DHT22;9382;53.242;10.438;2022-08-03T02:29:35;19.10;99.90
18506;DHT22;9382;53.242;10.438;2022-08-03T02:32:03;19.10;99.90
18506;DHT22;9382;53.242;10.438;2022-08-03T02:34:32;19.10;99.90
18506;DHT22;9382;53.242;10.438;2022-08-03T02:37:03;19.00;99.90
18506;DHT22;9382;53.242;10.438;2022-08-03T02:39:32;19.00;99.90
18506;DHT22;9382;53.242;10.438;2022-08-03T02:42:01;18.90;99.90
18506;DHT22;9382;53.242;10.438;2022-08-03T02:44:29;18.90;99.90
18506;DHT22;9382;53.242;10.438;2022-08-03T02:47:01;18.80;99.90
18506;DHT22;9382;53.242;10.438;2022-08-03T02:49:29;18.80;99.90
18506;DHT22;9382;53.242;10.438;2022-08-03T02:51:58;18.80;99.90
18506;DHT22;9382;53.242;10.438;2022-08-03T02:54:27;18.80;99.90
18506;DHT22;9382;53.242;10.438;2022-08-03T02:56:56;18.70;99.90
18506;DHT22;9382;53.242;10.438;2022-08-03T02:59:23;18.70;99.90
18506;DHT22;9382;53.242;10.438;2022-08-03T03:01:52;18.60;99.90
18506;DHT22;9382;53.242;10.438;2022-08-03T03:04:20;18.60;99.90
18506;DHT22;9382;53.242;10.438;2022-08-03T03:06:48;18.60;99.90
18506;DHT22;9382;53.242;10.438;2022-08-03T03:09:15;18.60;99.90
18506;DHT22;9382;53.242;10.438;2022-08-03T03:11:45;18.60;99.90
18506;DHT22;9382;53.242;10.438;2022-08-03T03:14:12;18.50;99.90
18506;DHT22;9382;53.242;10.438;2022-08-03T03:16:41;18.50;99.90
18506;DHT22;9382;53.242;10.438;2022-08-03T03:19:10;18.50;99.90
18506;DHT22;9382;53.242;10.438;2022-08-03T03:21:39;18.50;99.90
18506;DHT22;9382;53.242;10.438;2022-08-03T03:24:06;18.50;99.90
18506;DHT22;9382;53.242;10.438;2022-08-03T03:26:35;18.50;99.90
18506;DHT22;9382;53.242;10.438;2022-08-03T03:29:03;18.50;99.90
18506;DHT22;9382;53.242;10.438;2022-08-03T03:31:30;18.50;99.90
18506;DHT22;9382;53.242;10.438;2022-08-03T03:33:57;18.40;99.90
18506;DHT22;9382;53.242;10.438;2022-08-03T03:36:24;18.40;99.90
18506;DHT22;9382;53.242;10.438;2022-08-03T03:38:51;18.40;99.90
18506;DHT22;9382;53.242;10.438;2022-08-03T03:41:18;18.40;99.90
18506;DHT22;9382;53.242;10.438;2022-08-03T03:43:45;18.40;99.90
18506;DHT22;9382;53.242;10.438;2022-08-03T03:46:13;18.40;99.90
18506;DHT22;9382;53.242;10.438;2022-08-03T03:48:40;18.40;99.90
18506;DHT22;9382;53.242;10.438;2022-08-03T03:51:07;18.40;99.90
18506;DHT22;9382;53.242;10.438;2022-08-03T03:53:35;18.30;99.90
18506;DHT22;9382;53.242;10.438;2022-08-03T03:56:02;18.30;99.90
18506;DHT22;9382;53.242;10.438;2022-08-03T03:58:30;18.30;99.90
18506;DHT22;9382;53.242;10.438;2022-08-03T04:00:57;18.30;99.90
18506;DHT22;9382;53.242;10.438;2022-08-03T04:03:25;18.30;99.90
18506;DHT22;9382;53.242;10.438;2022-08-03T04:05:52;18.30;99.90
18506;DHT22;9382;53.242;10.438;2022-08-03T04:08:36;18.30;99.90
18506;DHT22;9382;53.242;10.438;2022-08-03T04:11:24;18.30;99.90
18506;DHT22;9382;53.242;10.438;2022-08-03T04:13:56;18.30;99.90
18506;DHT22;9382;53.242;10.438;2022-08-03T04:16:26;18.30;99.90
18506;DHT22;9382;53.242;10.438;2022-08-03T04:18:59;18.30;99.90
18506;DHT22;9382;53.242;10.438;2022-08-03T04:21:28;18.30;99.90
18506;DHT22;9382;53.242;10.438;2022-08-03T04:23:59;18.40;99.90
18506;DHT22;9382;53.242;10.438;2022-08-03T04:26:30;18.40;99.90
18506;DHT22;9382;53.242;10.438;2022-08-03T04:28:58;18.40;99.90
18506;DHT22;9382;53.242;10.438;2022-08-03T04:31:26;18.50;99.90
18506;DHT22;9382;53.242;10.438;2022-08-03T04:33:55;18.50;99.90
18506;DHT22;9382;53.242;10.438;2022-08-03T04:36:26;18.60;99.90
18506;DHT22;9382;53.242;10.438;2022-08-03T04:38:58;18.70;99.90
18506;DHT22;9382;53.242;10.438;2022-08-03T04:41:26;18.80;99.90
18506;DHT22;9382;53.242;10.438;2022-08-03T04:43:54;18.90;99.90
18506;DHT22;9382;53.242;10.438;2022-08-03T04:46:22;19.00;99.90
18506;DHT22;9382;53.242;10.438;2022-08-03T04:48:51;19.10;99.90
18506;DHT22;9382;53.242;10.438;2022-08-03T04:51:19;19.10;99.90
18506;DHT22;9382;53.242;10.438;2022-08-03T04:53:46;19.20;99.90
18506;DHT22;9382;53.242;10.438;2022-08-03T04:56:13;19.30;99.90
18506;DHT22;9382;53.242;10.438;2022-08-03T04:58:40;19.40;99.90
18506;DHT22;9382;53.242;10.438;2022-08-03T05:01:07;19.40;99.90
18506;DHT22;9382;53.242;10.438;2022-08-03T05:03:35;19.40;99.90
18506;DHT22;9382;53.242;10.438;2022-08-03T05:06:02;19.40;99.90
18506;DHT22;9382;53.242;10.438;2022-08-03T05:08:30;19.40;99.90
18506;DHT22;9382;53.242;10.438;2022-08-03T05:10:57;19.50;99.90
18506;DHT22;9382;53.242;10.438;2022-08-03T05:13:24;19.50;99.90
18506;DHT22;9382;53.242;10.438;2022-08-03T05:15:50;19.60;99.90
18506;DHT22;9382;53.242;10.438;2022-08-03T05:18:17;19.60;99.90
18506;DHT22;9382;53.242;10.438;2022-08-03T05:20:44;19.70;99.90
18506;DHT22;9382;53.242;10.438;2022-08-03T05:23:10;19.80;99.90
18506;DHT22;9382;53.242;10.438;2022-08-03T05:25:38;19.90;99.90
18506;DHT22;9382;53.242;10.438;2022-08-03T05:28:05;19.90;99.90
18506;DHT22;9382;53.242;10.438;2022-08-03T05:30:32;20.00;99.90
18506;DHT22;9382;53.242;10.438;2022-08-03T05:32:59;20.10;99.90
18506;DHT22;9382;53.242;10.438;2022-08-03T05:35:25;20.20;99.90
18506;DHT22;9382;53.242;10.438;2022-08-03T05:37:53;20.30;99.90
18506;DHT22;9382;53.242;10.438;2022-08-03T05:40:20;20.40;99.90
18506;DHT22;9382;53.242;10.438;2022-08-03T05:42:48;20.50;99.90
18506;DHT22;9382;53.242;10.438;2022-08-03T05:45:15;20.60;99.90
18506;DHT22;9382;53.242;10.438;2022-08-03T05:47:43;20.70;99.90
18506;DHT22;9382;53.242;10.438;2022-08-03T05:50:10;20.70;99.90
18506;DHT22;9382;53.242;10.438;2022-08-03T05:52:37;20.80;99.90
18506;DHT22;9382;53.242;10.438;2022-08-03T05:55:05;21.00;99.90
18506;DHT22;9382;53.242;10.438;2022-08-03T05:57:32;21.10;99.90
18506;DHT22;9382;53.242;10.438;2022-08-03T06:00:02;21.20;99.90
18506;DHT22;9382;53.242;10.438;2022-08-03T06:02:29;21.40;99.90
18506;DHT22;9382;53.242;10.438;2022-08-03T06:04:56;21.50;99.90
18506;DHT22;9382;53.242;10.438;2022-08-03T06:07:23;21.60;99.90
18506;DHT22;9382;53.242;10.438;2022-08-03T06:09:50;21.70;99.90
18506;DHT22;9382;53.242;10.438;2022-08-03T06:12:16;21.80;99.90
18506;DHT22;9382;53.242;10.438;2022-08-03T06:14:43;21.90;99.90
18506;DHT22;9382;53.242;10.438;2022-08-03T06:17:11;22.00;99.90
18506;DHT22;9382;53.242;10.438;2022-08-03T06:19:38;22.10;99.90
18506;DHT22;9382;53.242;10.438;2022-08-03T06:22:04;22.30;99.90
18506;DHT22;9382;53.242;10.438;2022-08-03T06:24:31;22.30;99.90
18506;DHT22;9382;53.242;10.438;2022-08-03T06:26:58;22.50;99.90
18506;DHT22;9382;53.242;10.438;2022-08-03T06:29:25;22.60;99.90
18506;DHT22;9382;53.242;10.438;2022-08-03T06:31:51;22.80;99.90
18506;DHT22;9382;53.242;10.438;2022-08-03T06:34:20;22.90;99.90
18506;DHT22;9382;53.242;10.438;2022-08-03T06:36:46;23.20;99.90
18506;DHT22;9382;53.242;10.438;2022-08-03T06:39:15;23.40;99.90
18506;DHT22;9382;53.242;10.438;2022-08-03T06:41:42;23.60;99.90
18506;DHT22;9382;53.242;10.438;2022-08-03T06:44:09;23.80;99.90
18506;DHT22;9382;53.242;10.438;2022-08-03T06:46:35;24.00;99.90
18506;DHT22;9382;53.242;10.438;2022-08-03T06:49:02;24.10;99.90
18506;DHT22;9382;53.242;10.438;2022-08-03T06:51:30;24.20;99.90
18506;DHT22;9382;53.242;10.438;2022-08-03T06:53:57;24.40;99.90
18506;DHT22;9382;53.242;10.438;2022-08-03T06:56:24;24.40;99.90
18506;DHT22;9382;53.242;10.438;2022-08-03T06:58:50;24.50;99.90
18506;DHT22;9382;53.242;10.438;2022-08-03T07:01:18;24.60;99.90
18506;DHT22;9382;53.242;10.438;2022-08-03T07:03:44;24.70;99.90
18506;DHT22;9382;53.242;10.438;2022-08-03T07:06:11;24.80;99.90
18506;DHT22;9382;53.242;10.438;2022-08-03T07:08:39;25.00;99.90
18506;DHT22;9382;53.242;10.438;2022-08-03T07:11:06;25.10;99.90
18506;DHT22;9382;53.242;10.438;2022-08-03T07:13:33;25.30;99.90
18506;DHT22;9382;53.242;10.438;2022-08-03T07:16:00;25.50;99.90
18506;DHT22;9382;53.242;10.438;2022-08-03T07:18:26;25.70;99.90
18506;DHT22;9382;53.242;10.438;2022-08-03T07:20:56;25.90;99.90
18506;DHT22;9382;53.242;10.438;2022-08-03T07:23:22;26.00;99.90
18506;DHT22;9382;53.242;10.438;2022-08-03T07:25:51;26.10;99.90
18506;DHT22;9382;53.242;10.438;2022-08-03T07:28:17;26.30;99.90
18506;DHT22;9382;53.242;10.438;2022-08-03T07:30:44;26.40;99.90
18506;DHT22;9382;53.242;10.438;2022-08-03T07:33:11;26.60;99.90
18506;DHT22;9382;53.242;10.438;2022-08-03T07:35:38;26.80;99.90
18506;DHT22;9382;53.242;10.438;2022-08-03T07:38:06;26.90;99.90
18506;DHT22;9382;53.242;10.438;2022-08-03T07:40:33;27.10;99.90
18506;DHT22;9382;53.242;10.438;2022-08-03T07:43:02;27.30;99.90
18506;DHT22;9382;53.242;10.438;2022-08-03T07:45:30;27.40;99.90
18506;DHT22;9382;53.242;10.438;2022-08-03T07:47:57;27.40;99.90
18506;DHT22;9382;53.242;10.438;2022-08-03T07:50:24;27.40;99.90
18506;DHT22;9382;53.242;10.438;2022-08-03T07:52:51;27.40;99.90
18506;DHT22;9382;53.242;10.438;2022-08-03T07:55:22;27.50;99.90
18506;DHT22;9382;53.242;10.438;2022-08-03T07:58:00;27.60;99.90
18506;DHT22;9382;53.242;10.438;2022-08-03T08:00:27;27.70;99.90
18506;DHT22;9382;53.242;10.438;2022-08-03T08:02:54;27.80;99.90
18506;DHT22;9382;53.242;10.438;2022-08-03T08:05:20;27.90;99.90
18506;DHT22;9382;53.242;10.438;2022-08-03T08:07:47;27.90;99.90
18506;DHT22;9382;53.242;10.438;2022-08-03T08:10:14;27.90;99.90
18506;DHT22;9382;53.242;10.438;2022-08-03T08:12:41;27.90;99.90
18506;DHT22;9382;53.242;10.438;2022-08-03T08:15:09;28.00;99.90
18506;DHT22;9382;53.242;10.438;2022-08-03T08:17:43;28.10;99.90
18506;DHT22;9382;53.242;10.438;2022-08-03T08:20:11;28.20;99.90
18506;DHT22;9382;53.242;10.438;2022-08-03T08:22:38;28.20;99.90
18506;DHT22;9382;53.242;10.438;2022-08-03T08:25:05;28.30;99.90
18506;DHT22;9382;53.242;10.438;2022-08-03T08:27:32;28.30;99.90
18506;DHT22;9382;53.242;10.438;2022-08-03T08:29:59;28.50;99.90
18506;DHT22;9382;53.242;10.438;2022-08-03T08:32:30;28.70;99.90
18506;DHT22;9382;53.242;10.438;2022-08-03T08:34:57;29.00;99.90
18506;DHT22;9382;53.242;10.438;2022-08-03T08:37:24;29.20;99.90
18506;DHT22;9382;53.242;10.438;2022-08-03T08:39:51;29.40;99.90
18506;DHT22;9382;53.242;10.438;2022-08-03T08:42:17;29.60;99.90
18506;DHT22;9382;53.242;10.438;2022-08-03T08:44:44;29.70;99.90
18506;DHT22;9382;53.242;10.438;2022-08-03T08:47:11;29.80;99.90
18506;DHT22;9382;53.242;10.438;2022-08-03T08:49:40;29.90;99.90
18506;DHT22;9382;53.242;10.438;2022-08-03T08:52:07;30.00;99.90
18506;DHT22;9382;53.242;10.438;2022-08-03T08:54:35;30.00;99.90
18506;DHT22;9382;53.242;10.438;2022-08-03T08:57:06;30.00;99.90
18506;DHT22;9382;53.242;10.438;2022-08-03T08:59:33;30.10;99.90
18506;DHT22;9382;53.242;10.438;2022-08-03T09:02:00;30.30;99.90
18506;DHT22;9382;53.242;10.438;2022-08-03T09:04:27;30.30;99.90
18506;DHT22;9382;53.242;10.438;2022-08-03T09:06:56;30.40;99.90
18506;DHT22;9382;53.242;10.438;2022-08-03T09:09:23;30.20;99.90
18506;DHT22;9382;53.242;10.438;2022-08-03T09:11:50;30.00;99.90
18506;DHT22;9382;53.242;10.438;2022-08-03T09:14:17;30.00;99.90
18506;DHT22;9382;53.242;10.438;2022-08-03T09:16:57;30.10;99.90
18506;DHT22;9382;53.242;10.438;2022-08-03T09:19:28;30.30;99.90
18506;DHT22;9382;53.242;10.438;2022-08-03T09:22:11;30.50;99.90
18506;DHT22;9382;53.242;10.438;2022-08-03T09:24:52;30.50;99.90
18506;DHT22;9382;53.242;10.438;2022-08-03T09:27:20;30.50;99.90
18506;DHT22;9382;53.242;10.438;2022-08-03T09:29:47;30.40;99.90
18506;DHT22;9382;53.242;10.438;2022-08-03T09:32:15;30.20;99.90
18506;DHT22;9382;53.242;10.438;2022-08-03T09:34:45;30.00;99.90
18506;DHT22;9382;53.242;10.438;2022-08-03T09:37:15;30.00;99.90
18506;DHT22;9382;53.242;10.438;2022-08-03T09:39:42;29.90;99.90
18506;DHT22;9382;53.242;10.438;2022-08-03T09:42:11;30.10;99.90
18506;DHT22;9382;53.242;10.438;2022-08-03T09:44:40;30.20;99.90
18506;DHT22;9382;53.242;10.438;2022-08-03T09:47:08;30.30;99.90
18506;DHT22;9382;53.242;10.438;2022-08-03T09:49:36;30.40;99.90
18506;DHT22;9382;53.242;10.438;2022-08-03T09:52:12;30.40;99.90
18506;DHT22;9382;53.242;10.438;2022-08-03T09:54:41;30.40;99.90
18506;DHT22;9382;53.242;10.438;2022-08-03T09:57:09;30.30;99.90
18506;DHT22;9382;53.242;10.438;2022-08-03T09:59:45;30.50;99.90
18506;DHT22;9382;53.242;10.438;2022-08-03T10:02:20;30.70;99.90
18506;DHT22;9382;53.242;10.438;2022-08-03T10:04:48;31.00;99.90
18506;DHT22;9382;53.242;10.438;2022-08-03T10:07:17;31.30;99.90
18506;DHT22;9382;53.242;10.438;2022-08-03T10:09:55;31.50;99.90
18506;DHT22;9382;53.242;10.438;2022-08-03T10:12:22;31.70;99.90
18506;DHT22;9382;53.242;10.438;2022-08-03T10:14:50;32.00;99.90
18506;DHT22;9382;53.242;10.438;2022-08-03T10:17:17;32.40;99.90
18506;DHT22;9382;53.242;10.438;2022-08-03T10:19:43;32.60;99.90
18506;DHT22;9382;53.242;10.438;2022-08-03T10:22:12;32.40;99.90
18506;DHT22;9382;53.242;10.438;2022-08-03T10:24:45;32.20;99.90
18506;DHT22;9382;53.242;10.438;2022-08-03T10:27:14;32.00;99.90
18506;DHT22;9382;53.242;10.438;2022-08-03T10:29:46;32.00;99.90
18506;DHT22;9382;53.242;10.438;2022-08-03T10:32:21;32.10;99.90
18506;DHT22;9382;53.242;10.438;2022-08-03T10:34:49;32.00;99.90
18506;DHT22;9382;53.242;10.438;2022-08-03T10:37:17;32.10;99.90
18506;DHT22;9382;53.242;10.438;2022-08-03T10:39:44;32.30;99.90
18506;DHT22;9382;53.242;10.438;2022-08-03T10:42:22;32.40;99.90
18506;DHT22;9382;53.242;10.438;2022-08-03T10:44:54;32.70;99.90
18506;DHT22;9382;53.242;10.438;2022-08-03T10:47:23;33.00;99.90
18506;DHT22;9382;53.242;10.438;2022-08-03T10:49:50;33.30;99.90
18506;DHT22;9382;53.242;10.438;2022-08-03T10:52:17;33.60;99.90
18506;DHT22;9382;53.242;10.438;2022-08-03T10:54:44;33.50;99.90
18506;DHT22;9382;53.242;10.438;2022-08-03T10:57:44;33.40;99.90
18506;DHT22;9382;53.242;10.438;2022-08-03T11:00:12;33.60;99.90
18506;DHT22;9382;53.242;10.438;2022-08-03T11:03:05;33.70;99.90
18506;DHT22;9382;53.242;10.438;2022-08-03T11:05:35;33.90;99.90
18506;DHT22;9382;53.242;10.438;2022-08-03T11:10:59;34.30;99.90
18506;DHT22;9382;53.242;10.438;2022-08-03T11:13:30;34.50;99.90
18506;DHT22;9382;53.242;10.438;2022-08-03T11:16:00;34.50;99.90
18506;DHT22;9382;53.242;10.438;2022-08-03T11:18:28;34.70;99.90
18506;DHT22;9382;53.242;10.438;2022-08-03T11:20:56;34.90;99.90
18506;DHT22;9382;53.242;10.438;2022-08-03T11:23:41;35.10;99.90
18506;DHT22;9382;53.242;10.438;2022-08-03T11:26:12;35.10;99.90
18506;DHT22;9382;53.242;10.438;2022-08-03T11:28:42;35.20;99.90
18506;DHT22;9382;53.242;10.438;2022-08-03T11:31:43;35.20;99.90
18506;DHT22;9382;53.242;10.438;2022-08-03T11:34:15;35.30;99.90
18506;DHT22;9382;53.242;10.438;2022-08-03T11:39:52;35.30;99.90
18506;DHT22;9382;53.242;10.438;2022-08-03T11:42:41;35.50;99.90
18506;DHT22;9382;53.242;10.438;2022-08-03T11:45:14;35.50;99.90
18506;DHT22;9382;53.242;10.438;2022-08-03T11:47:41;35.70;99.90
18506;DHT22;9382;53.242;10.438;2022-08-03T11:50:09;36.00;99.90
18506;DHT22;9382;53.242;10.438;2022-08-03T11:52:40;36.10;99.90
18506;DHT22;9382;53.242;10.438;2022-08-03T11:55:15;36.20;99.90
18506;DHT22;9382;53.242;10.438;2022-08-03T11:57:43;35.80;99.90
18506;DHT22;9382;53.242;10.438;2022-08-03T12:00:36;36.00;99.90
18506;DHT22;9382;53.242;10.438;2022-08-03T12:03:05;36.60;99.90
18506;DHT22;9382;53.242;10.438;2022-08-03T12:05:37;37.10;99.90
18506;DHT22;9382;53.242;10.438;2022-08-03T12:08:05;37.20;99.90
18506;DHT22;9382;53.242;10.438;2022-08-03T12:10:32;37.70;99.90
18506;DHT22;9382;53.242;10.438;2022-08-03T12:13:00;38.30;99.60
18506;DHT22;9382;53.242;10.438;2022-08-03T12:15:29;39.10;98.70
18506;DHT22;9382;53.242;10.438;2022-08-03T12:18:00;39.30;97.10
18506;DHT22;9382;53.242;10.438;2022-08-03T12:20:29;39.70;93.70
18506;DHT22;9382;53.242;10.438;2022-08-03T12:23:01;39.50;93.50
18506;DHT22;9382;53.242;10.438;2022-08-03T12:25:28;39.30;92.90
18506;DHT22;9382;53.242;10.438;2022-08-03T12:28:06;39.70;92.40
18506;DHT22;9382;53.242;10.438;2022-08-03T12:30:33;39.90;90.80
18506;DHT22;9382;53.242;10.438;2022-08-03T12:33:21;40.00;91.30
18506;DHT22;9382;53.242;10.438;2022-08-03T12:35:50;40.00;91.90
18506;DHT22;9382;53.242;10.438;2022-08-03T12:38:28;40.50;92.50
18506;DHT22;9382;53.242;10.438;2022-08-03T12:40:59;41.10;91.10
18506;DHT22;9382;53.242;10.438;2022-08-03T12:43:27;40.90;88.90
18506;DHT22;9382;53.242;10.438;2022-08-03T12:46:07;41.20;86.20
18506;DHT22;9382;53.242;10.438;2022-08-03T12:48:35;41.80;86.70
18506;DHT22;9382;53.242;10.438;2022-08-03T12:51:08;42.10;87.70
18506;DHT22;9382;53.242;10.438;2022-08-03T12:53:36;42.70;82.10
18506;DHT22;9382;53.242;10.438;2022-08-03T12:56:03;42.90;80.70
18506;DHT22;9382;53.242;10.438;2022-08-03T12:58:31;42.20;82.10
18506;DHT22;9382;53.242;10.438;2022-08-03T13:00:59;42.00;80.60
18506;DHT22;9382;53.242;10.438;2022-08-03T13:03:25;41.90;78.80
18506;DHT22;9382;53.242;10.438;2022-08-03T13:05:53;41.20;78.90
18506;DHT22;9382;53.242;10.438;2022-08-03T13:08:23;41.30;80.40
18506;DHT22;9382;53.242;10.438;2022-08-03T13:10:50;41.90;79.30
18506;DHT22;9382;53.242;10.438;2022-08-03T13:13:17;42.30;75.50
18506;DHT22;9382;53.242;10.438;2022-08-03T13:15:45;42.40;78.00
18506;DHT22;9382;53.242;10.438;2022-08-03T13:18:12;42.70;73.40
18506;DHT22;9382;53.242;10.438;2022-08-03T13:20:39;42.90;77.70
18506;DHT22;9382;53.242;10.438;2022-08-03T13:23:07;42.80;75.50
18506;DHT22;9382;53.242;10.438;2022-08-03T13:25:34;43.40;71.30
18506;DHT22;9382;53.242;10.438;2022-08-03T13:28:00;43.50;72.20
18506;DHT22;9382;53.242;10.438;2022-08-03T13:30:29;44.30;75.70
18506;DHT22;9382;53.242;10.438;2022-08-03T13:32:55;45.30;71.70
18506;DHT22;9382;53.242;10.438;2022-08-03T13:35:23;45.10;70.40
18506;DHT22;9382;53.242;10.438;2022-08-03T13:37:50;45.60;68.20
18506;DHT22;9382;53.242;10.438;2022-08-03T13:40:18;45.20;67.40
18506;DHT22;9382;53.242;10.438;2022-08-03T13:42:44;44.70;66.50
18506;DHT22;9382;53.242;10.438;2022-08-03T13:45:11;44.00;69.60
18506;DHT22;9382;53.242;10.438;2022-08-03T13:47:38;45.00;71.40
18506;DHT22;9382;53.242;10.438;2022-08-03T13:50:05;45.20;63.60
18506;DHT22;9382;53.242;10.438;2022-08-03T13:52:33;44.20;63.30
18506;DHT22;9382;53.242;10.438;2022-08-03T13:55:01;43.60;64.40
18506;DHT22;9382;53.242;10.438;2022-08-03T13:57:29;43.80;65.50
18506;DHT22;9382;53.242;10.438;2022-08-03T13:59:56;43.90;62.40
18506;DHT22;9382;53.242;10.438;2022-08-03T14:02:23;44.10;64.30
18506;DHT22;9382;53.242;10.438;2022-08-03T14:04:50;45.70;62.20
18506;DHT22;9382;53.242;10.438;2022-08-03T14:07:16;46.80;65.10
18506;DHT22;9382;53.242;10.438;2022-08-03T14:09:44;46.20;59.40
18506;DHT22;9382;53.242;10.438;2022-08-03T14:12:10;44.30;62.80
18506;DHT22;9382;53.242;10.438;2022-08-03T14:14:39;43.40;63.60
18506;DHT22;9382;53.242;10.438;2022-08-03T14:17:06;44.30;64.70
18506;DHT22;9382;53.242;10.438;2022-08-03T14:19:32;45.60;64.60
18506;DHT22;9382;53.242;10.438;2022-08-03T14:21:59;45.90;60.30
18506;DHT22;9382;53.242;10.438;2022-08-03T14:24:28;46.00;62.70
18506;DHT22;9382;53.242;10.438;2022-08-03T14:26:55;46.00;59.10
18506;DHT22;9382;53.242;10.438;2022-08-03T14:29:22;45.60;60.50
18506;DHT22;9382;53.242;10.438;2022-08-03T14:31:50;45.80;58.30
18506;DHT22;9382;53.242;10.438;2022-08-03T14:34:17;45.90;57.60
18506;DHT22;9382;53.242;10.438;2022-08-03T14:36:43;46.20;57.10
18506;DHT22;9382;53.242;10.438;2022-08-03T14:39:11;46.70;58.10
18506;DHT22;9382;53.242;10.438;2022-08-03T14:41:38;47.20;56.50
18506;DHT22;9382;53.242;10.438;2022-08-03T14:44:05;47.70;56.70
18506;DHT22;9382;53.242;10.438;2022-08-03T14:46:32;47.40;57.00
18506;DHT22;9382;53.242;10.438;2022-08-03T14:49:00;47.70;56.70
18506;DHT22;9382;53.242;10.438;2022-08-03T14:51:27;47.80;56.40
18506;DHT22;9382;53.242;10.438;2022-08-03T14:53:54;48.70;56.70
18506;DHT22;9382;53.242;10.438;2022-08-03T14:56:21;48.90;55.70
18506;DHT22;9382;53.242;10.438;2022-08-03T14:58:47;49.10;55.00
18506;DHT22;9382;53.242;10.438;2022-08-03T15:01:14;48.40;53.90
18506;DHT22;9382;53.242;10.438;2022-08-03T15:03:41;48.50;56.80
18506;DHT22;9382;53.242;10.438;2022-08-03T15:06:09;48.30;55.10
18506;DHT22;9382;53.242;10.438;2022-08-03T15:08:36;48.00;53.70
18506;DHT22;9382;53.242;10.438;2022-08-03T15:11:03;48.10;55.40
18506;DHT22;9382;53.242;10.438;2022-08-03T15:13:29;47.70;53.70
18506;DHT22;9382;53.242;10.438;2022-08-03T15:15:56;47.30;54.90
18506;DHT22;9382;53.242;10.438;2022-08-03T15:18:23;47.40;54.60
18506;DHT22;9382;53.242;10.438;2022-08-03T15:20:49;47.70;53.40
18506;DHT22;9382;53.242;10.438;2022-08-03T15:23:18;47.30;54.90
18506;DHT22;9382;53.242;10.438;2022-08-03T15:25:45;45.90;54.60
18506;DHT22;9382;53.242;10.438;2022-08-03T15:28:12;44.00;56.00
18506;DHT22;9382;53.242;10.438;2022-08-03T15:30:39;42.50;56.80
18506;DHT22;9382;53.242;10.438;2022-08-03T15:33:06;41.20;60.30
18506;DHT22;9382;53.242;10.438;2022-08-03T15:35:48;40.40;60.40
18506;DHT22;9382;53.242;10.438;2022-08-03T15:38:21;39.80;60.80
18506;DHT22;9382;53.242;10.438;2022-08-03T15:40:53;39.90;62.40
18506;DHT22;9382;53.242;10.438;2022-08-03T15:43:20;40.30;61.40
18506;DHT22;9382;53.242;10.438;2022-08-03T15:45:47;40.30;59.90
18506;DHT22;9382;53.242;10.438;2022-08-03T15:48:14;40.80;61.00